Belleville, New York
Current Conditions -  °F | °C
As of 3:56 PM on Wednesday 17 Dec 2014 (Local Time) from KART Reporting Station
Overcast Overcast  
Wind Chill: 31°   Ceiling: 1000
Heat Index: 39°   Visibility: 10mi
Dew Point: 33°   Wind: 14mph
Humidity: 79%   Direction: 250°WSW
Pressure: 29.82"   Gusts: 24mph
Location:  43.78°N, 76.12°W
Report Text: KART 172056Z AUTO 25012G21KT 10SM OVC010 04/01 A2982 RMK AO2 RAB03E28 CIG 009V013 SLP099 P0000 60003 T00390006 51010
Loading
Personal Weather Stations






























Interactive Weather Map New forecast layout! Learn more

10-Day Weather Forecast

Advertisements
Track Severe Weather on mobile